sensor_id;sensor_type;location;lat;lon;timestamp;P1;durP1;ratioP1;P2;durP2;ratioP2
21831;SDS011;11078;49.872;6.188;2022-07-06T00:01:43;1.90;;;1.25;;
21831;SDS011;11078;49.872;6.188;2022-07-06T00:04:09;3.38;;;1.50;;
21831;SDS011;11078;49.872;6.188;2022-07-06T00:06:35;3.80;;;1.50;;
21831;SDS011;11078;49.872;6.188;2022-07-06T00:09:01;2.67;;;1.77;;
21831;SDS011;11078;49.872;6.188;2022-07-06T00:11:28;2.75;;;1.52;;
21831;SDS011;11078;49.872;6.188;2022-07-06T00:13:54;2.50;;;1.55;;
21831;SDS011;11078;49.872;6.188;2022-07-06T00:16:21;3.75;;;1.50;;
21831;SDS011;11078;49.872;6.188;2022-07-06T00:18:48;1.55;;;1.45;;
21831;SDS011;11078;49.872;6.188;2022-07-06T00:21:14;3.67;;;1.27;;
21831;SDS011;11078;49.872;6.188;2022-07-06T00:23:40;1.65;;;1.55;;
21831;SDS011;11078;49.872;6.188;2022-07-06T00:26:06;1.60;;;1.50;;
21831;SDS011;11078;49.872;6.188;2022-07-06T00:28:32;1.63;;;1.30;;
21831;SDS011;11078;49.872;6.188;2022-07-06T00:30:58;3.92;;;1.80;;
21831;SDS011;11078;49.872;6.188;2022-07-06T00:33:24;1.45;;;1.23;;
21831;SDS011;11078;49.872;6.188;2022-07-06T00:35:50;2.50;;;1.90;;
21831;SDS011;11078;49.872;6.188;2022-07-06T00:38:16;1.45;;;1.35;;
21831;SDS011;11078;49.872;6.188;2022-07-06T00:40:43;1.67;;;1.40;;
21831;SDS011;11078;49.872;6.188;2022-07-06T00:43:09;1.50;;;1.40;;
21831;SDS011;11078;49.872;6.188;2022-07-06T00:45:35;1.33;;;1.23;;
21831;SDS011;11078;49.872;6.188;2022-07-06T00:48:01;1.67;;;1.58;;
21831;SDS011;11078;49.872;6.188;2022-07-06T00:50:27;3.70;;;1.60;;
21831;SDS011;11078;49.872;6.188;2022-07-06T00:52:55;2.63;;;1.50;;
21831;SDS011;11078;49.872;6.188;2022-07-06T00:55:25;1.73;;;1.55;;
21831;SDS011;11078;49.872;6.188;2022-07-06T00:57:52;1.73;;;1.33;;
21831;SDS011;11078;49.872;6.188;2022-07-06T01:00:19;1.33;;;1.23;;
21831;SDS011;11078;49.872;6.188;2022-07-06T01:02:48;1.67;;;1.35;;
21831;SDS011;11078;49.872;6.188;2022-07-06T01:05:14;1.40;;;1.30;;
21831;SDS011;11078;49.872;6.188;2022-07-06T01:07:41;1.60;;;1.35;;
21831;SDS011;11078;49.872;6.188;2022-07-06T01:10:10;2.20;;;1.50;;
21831;SDS011;11078;49.872;6.188;2022-07-06T01:12:38;3.50;;;1.85;;
21831;SDS011;11078;49.872;6.188;2022-07-06T01:15:07;2.42;;;1.70;;
21831;SDS011;11078;49.872;6.188;2022-07-06T01:17:39;1.60;;;1.30;;
21831;SDS011;11078;49.872;6.188;2022-07-06T01:22:48;1.40;;;1.30;;
21831;SDS011;11078;49.872;6.188;2022-07-06T01:25:15;1.90;;;1.70;;
21831;SDS011;11078;49.872;6.188;2022-07-06T01:27:42;2.05;;;1.40;;
21831;SDS011;11078;49.872;6.188;2022-07-06T01:30:10;1.88;;;1.63;;
21831;SDS011;11078;49.872;6.188;2022-07-06T01:32:38;2.60;;;1.40;;
21831;SDS011;11078;49.872;6.188;2022-07-06T01:35:04;1.50;;;1.40;;
21831;SDS011;11078;49.872;6.188;2022-07-06T01:37:32;1.25;;;1.15;;
21831;SDS011;11078;49.872;6.188;2022-07-06T01:39:58;1.70;;;1.60;;
21831;SDS011;11078;49.872;6.188;2022-07-06T01:42:26;3.55;;;1.75;;
21831;SDS011;11078;49.872;6.188;2022-07-06T01:44:52;2.08;;;1.75;;
21831;SDS011;11078;49.872;6.188;2022-07-06T01:47:19;1.55;;;1.45;;
21831;SDS011;11078;49.872;6.188;2022-07-06T01:49:45;1.63;;;1.52;;
21831;SDS011;11078;49.872;6.188;2022-07-06T01:52:11;3.17;;;1.48;;
21831;SDS011;11078;49.872;6.188;2022-07-06T01:54:37;2.03;;;1.67;;
21831;SDS011;11078;49.872;6.188;2022-07-06T01:57:03;1.63;;;1.52;;
21831;SDS011;11078;49.872;6.188;2022-07-06T01:59:29;1.65;;;1.55;;
21831;SDS011;11078;49.872;6.188;2022-07-06T02:01:55;3.38;;;1.55;;
21831;SDS011;11078;49.872;6.188;2022-07-06T02:04:21;1.52;;;1.42;;
21831;SDS011;11078;49.872;6.188;2022-07-06T02:06:47;3.20;;;1.27;;
21831;SDS011;11078;49.872;6.188;2022-07-06T02:09:13;1.55;;;1.45;;
21831;SDS011;11078;49.872;6.188;2022-07-06T02:11:39;4.15;;;1.30;;
21831;SDS011;11078;49.872;6.188;2022-07-06T02:14:05;1.70;;;1.60;;
21831;SDS011;11078;49.872;6.188;2022-07-06T02:16:31;1.70;;;1.60;;
21831;SDS011;11078;49.872;6.188;2022-07-06T02:18:57;2.17;;;1.70;;
21831;SDS011;11078;49.872;6.188;2022-07-06T02:21:23;1.70;;;1.40;;
21831;SDS011;11078;49.872;6.188;2022-07-06T02:23:49;1.50;;;1.40;;
21831;SDS011;11078;49.872;6.188;2022-07-06T02:26:15;1.50;;;1.20;;
21831;SDS011;11078;49.872;6.188;2022-07-06T02:28:40;2.03;;;1.40;;
21831;SDS011;11078;49.872;6.188;2022-07-06T02:31:06;3.95;;;1.45;;
21831;SDS011;11078;49.872;6.188;2022-07-06T02:33:32;1.40;;;1.30;;
21831;SDS011;11078;49.872;6.188;2022-07-06T02:35:58;1.58;;;1.27;;
21831;SDS011;11078;49.872;6.188;2022-07-06T02:38:24;1.63;;;1.52;;
21831;SDS011;11078;49.872;6.188;2022-07-06T02:40:50;2.60;;;1.50;;
21831;SDS011;11078;49.872;6.188;2022-07-06T02:43:16;1.70;;;1.52;;
21831;SDS011;11078;49.872;6.188;2022-07-06T02:45:42;2.08;;;1.45;;
21831;SDS011;11078;49.872;6.188;2022-07-06T02:48:08;2.75;;;1.52;;
21831;SDS011;11078;49.872;6.188;2022-07-06T02:50:34;1.40;;;1.30;;
21831;SDS011;11078;49.872;6.188;2022-07-06T02:53:00;1.75;;;1.25;;
21831;SDS011;11078;49.872;6.188;2022-07-06T02:55:26;1.30;;;1.20;;
21831;SDS011;11078;49.872;6.188;2022-07-06T02:57:52;1.50;;;1.40;;
21831;SDS011;11078;49.872;6.188;2022-07-06T03:00:19;1.60;;;1.50;;
21831;SDS011;11078;49.872;6.188;2022-07-06T03:02:45;1.80;;;1.42;;
21831;SDS011;11078;49.872;6.188;2022-07-06T03:05:11;1.42;;;1.30;;
21831;SDS011;11078;49.872;6.188;2022-07-06T03:07:37;1.63;;;1.40;;
21831;SDS011;11078;49.872;6.188;2022-07-06T03:10:03;1.42;;;1.33;;
21831;SDS011;11078;49.872;6.188;2022-07-06T03:12:29;3.92;;;1.67;;
21831;SDS011;11078;49.872;6.188;2022-07-06T03:14:55;2.22;;;1.48;;
21831;SDS011;11078;49.872;6.188;2022-07-06T03:17:21;2.17;;;1.70;;
21831;SDS011;11078;49.872;6.188;2022-07-06T03:19:47;1.60;;;1.50;;
21831;SDS011;11078;49.872;6.188;2022-07-06T03:22:12;2.22;;;1.60;;
21831;SDS011;11078;49.872;6.188;2022-07-06T03:24:39;1.27;;;1.23;;
21831;SDS011;11078;49.872;6.188;2022-07-06T03:27:05;1.45;;;1.30;;
21831;SDS011;11078;49.872;6.188;2022-07-06T03:29:31;1.92;;;1.45;;
21831;SDS011;11078;49.872;6.188;2022-07-06T03:31:58;1.45;;;1.35;;
21831;SDS011;11078;49.872;6.188;2022-07-06T03:34:23;1.98;;;1.50;;
21831;SDS011;11078;49.872;6.188;2022-07-06T03:36:50;1.60;;;1.40;;
21831;SDS011;11078;49.872;6.188;2022-07-06T03:39:15;1.38;;;1.27;;
21831;SDS011;11078;49.872;6.188;2022-07-06T03:41:41;2.00;;;1.38;;
21831;SDS011;11078;49.872;6.188;2022-07-06T03:44:07;1.52;;;1.42;;
21831;SDS011;11078;49.872;6.188;2022-07-06T03:46:33;1.70;;;1.60;;
21831;SDS011;11078;49.872;6.188;2022-07-06T03:48:59;4.88;;;1.50;;
21831;SDS011;11078;49.872;6.188;2022-07-06T03:51:25;1.38;;;1.25;;
21831;SDS011;11078;49.872;6.188;2022-07-06T03:53:51;1.70;;;1.42;;
21831;SDS011;11078;49.872;6.188;2022-07-06T03:56:17;3.35;;;1.60;;
21831;SDS011;11078;49.872;6.188;2022-07-06T03:59:00;2.50;;;1.42;;
21831;SDS011;11078;49.872;6.188;2022-07-06T04:01:27;1.77;;;1.35;;
21831;SDS011;11078;49.872;6.188;2022-07-06T04:03:55;1.73;;;1.40;;
21831;SDS011;11078;49.872;6.188;2022-07-06T04:06:21;2.00;;;1.48;;
21831;SDS011;11078;49.872;6.188;2022-07-06T04:08:47;1.73;;;1.63;;
21831;SDS011;11078;49.872;6.188;2022-07-06T04:11:13;1.40;;;1.30;;
21831;SDS011;11078;49.872;6.188;2022-07-06T04:13:39;1.73;;;1.63;;
21831;SDS011;11078;49.872;6.188;2022-07-06T04:16:05;1.58;;;1.42;;
21831;SDS011;11078;49.872;6.188;2022-07-06T04:18:32;1.50;;;1.40;;
21831;SDS011;11078;49.872;6.188;2022-07-06T04:20:58;2.83;;;1.90;;
21831;SDS011;11078;49.872;6.188;2022-07-06T04:23:24;1.75;;;1.60;;
21831;SDS011;11078;49.872;6.188;2022-07-06T04:25:50;1.88;;;1.77;;
21831;SDS011;11078;49.872;6.188;2022-07-06T04:28:16;3.35;;;1.70;;
21831;SDS011;11078;49.872;6.188;2022-07-06T04:30:42;1.75;;;1.63;;
21831;SDS011;11078;49.872;6.188;2022-07-06T04:33:08;1.60;;;1.50;;
21831;SDS011;11078;49.872;6.188;2022-07-06T04:35:34;1.60;;;1.50;;
21831;SDS011;11078;49.872;6.188;2022-07-06T04:38:00;1.40;;;1.30;;
21831;SDS011;11078;49.872;6.188;2022-07-06T04:40:26;2.00;;;1.80;;
21831;SDS011;11078;49.872;6.188;2022-07-06T04:42:52;2.40;;;1.45;;
21831;SDS011;11078;49.872;6.188;2022-07-06T04:45:18;2.83;;;1.80;;
21831;SDS011;11078;49.872;6.188;2022-07-06T04:47:44;2.65;;;1.73;;
21831;SDS011;11078;49.872;6.188;2022-07-06T04:50:10;1.95;;;1.70;;
21831;SDS011;11078;49.872;6.188;2022-07-06T04:52:38;3.67;;;1.70;;
21831;SDS011;11078;49.872;6.188;2022-07-06T04:55:04;2.13;;;1.75;;
21831;SDS011;11078;49.872;6.188;2022-07-06T04:57:31;3.58;;;1.70;;
21831;SDS011;11078;49.872;6.188;2022-07-06T04:59:57;2.60;;;1.65;;
21831;SDS011;11078;49.872;6.188;2022-07-06T05:02:23;1.67;;;1.58;;
21831;SDS011;11078;49.872;6.188;2022-07-06T05:04:50;3.03;;;1.83;;
21831;SDS011;11078;49.872;6.188;2022-07-06T05:07:16;2.53;;;1.92;;
21831;SDS011;11078;49.872;6.188;2022-07-06T05:09:42;2.47;;;1.50;;
21831;SDS011;11078;49.872;6.188;2022-07-06T05:12:08;4.07;;;1.80;;
21831;SDS011;11078;49.872;6.188;2022-07-06T05:14:34;2.20;;;1.80;;
21831;SDS011;11078;49.872;6.188;2022-07-06T05:17:02;2.35;;;1.92;;
21831;SDS011;11078;49.872;6.188;2022-07-06T05:19:28;2.30;;;2.08;;
21831;SDS011;11078;49.872;6.188;2022-07-06T05:21:54;2.65;;;2.45;;
21831;SDS011;11078;49.872;6.188;2022-07-06T05:24:20;4.28;;;3.05;;
21831;SDS011;11078;49.872;6.188;2022-07-06T05:26:46;5.35;;;2.78;;
21831;SDS011;11078;49.872;6.188;2022-07-06T05:29:12;4.10;;;2.88;;
21831;SDS011;11078;49.872;6.188;2022-07-06T05:31:38;2.42;;;2.22;;
21831;SDS011;11078;49.872;6.188;2022-07-06T05:34:04;3.20;;;2.50;;
21831;SDS011;11078;49.872;6.188;2022-07-06T05:36:30;3.05;;;2.50;;
21831;SDS011;11078;49.872;6.188;2022-07-06T05:38:56;3.60;;;2.03;;
21831;SDS011;11078;49.872;6.188;2022-07-06T05:41:22;2.33;;;2.10;;
21831;SDS011;11078;49.872;6.188;2022-07-06T05:43:48;2.50;;;1.90;;
21831;SDS011;11078;49.872;6.188;2022-07-06T05:46:14;1.98;;;1.88;;
21831;SDS011;11078;49.872;6.188;2022-07-06T05:48:40;12.23;;;1.90;;
21831;SDS011;11078;49.872;6.188;2022-07-06T05:51:21;3.00;;;2.35;;
21831;SDS011;11078;49.872;6.188;2022-07-06T05:53:47;2.13;;;1.83;;
21831;SDS011;11078;49.872;6.188;2022-07-06T05:56:13;1.85;;;1.60;;
21831;SDS011;11078;49.872;6.188;2022-07-06T06:01:24;5.18;;;2.00;;
21831;SDS011;11078;49.872;6.188;2022-07-06T06:03:50;6.45;;;1.77;;
21831;SDS011;11078;49.872;6.188;2022-07-06T06:06:15;5.05;;;2.10;;
21831;SDS011;11078;49.872;6.188;2022-07-06T06:08:42;2.10;;;1.90;;
21831;SDS011;11078;49.872;6.188;2022-07-06T06:11:08;2.35;;;1.77;;
21831;SDS011;11078;49.872;6.188;2022-07-06T06:13:34;2.67;;;2.08;;
21831;SDS011;11078;49.872;6.188;2022-07-06T06:16:00;3.15;;;1.70;;
21831;SDS011;11078;49.872;6.188;2022-07-06T06:18:26;3.83;;;1.77;;
21831;SDS011;11078;49.872;6.188;2022-07-06T06:20:52;3.10;;;1.77;;
21831;SDS011;11078;49.872;6.188;2022-07-06T06:23:18;3.20;;;1.27;;
21831;SDS011;11078;49.872;6.188;2022-07-06T06:25:44;3.15;;;1.42;;
21831;SDS011;11078;49.872;6.188;2022-07-06T06:28:10;2.75;;;1.58;;
21831;SDS011;11078;49.872;6.188;2022-07-06T06:30:37;4.68;;;1.40;;
21831;SDS011;11078;49.872;6.188;2022-07-06T06:33:05;3.17;;;1.40;;
21831;SDS011;11078;49.872;6.188;2022-07-06T06:35:34;4.57;;;1.55;;
21831;SDS011;11078;49.872;6.188;2022-07-06T06:38:01;2.55;;;1.20;;
21831;SDS011;11078;49.872;6.188;2022-07-06T06:40:27;2.80;;;1.40;;
21831;SDS011;11078;49.872;6.188;2022-07-06T06:42:53;2.67;;;1.20;;
21831;SDS011;11078;49.872;6.188;2022-07-06T06:45:19;1.65;;;1.30;;
21831;SDS011;11078;49.872;6.188;2022-07-06T06:47:45;2.63;;;1.38;;
21831;SDS011;11078;49.872;6.188;2022-07-06T06:50:11;4.95;;;1.42;;
21831;SDS011;11078;49.872;6.188;2022-07-06T06:52:37;2.05;;;1.27;;
21831;SDS011;11078;49.872;6.188;2022-07-06T06:55:03;1.75;;;1.10;;
21831;SDS011;11078;49.872;6.188;2022-07-06T06:57:29;2.75;;;1.05;;
21831;SDS011;11078;49.872;6.188;2022-07-06T06:59:55;1.65;;;1.13;;
21831;SDS011;11078;49.872;6.188;2022-07-06T07:02:22;7.10;;;1.00;;
21831;SDS011;11078;49.872;6.188;2022-07-06T07:04:48;0.95;;;0.90;;
21831;SDS011;11078;49.872;6.188;2022-07-06T07:07:14;2.20;;;1.00;;
21831;SDS011;11078;49.872;6.188;2022-07-06T07:09:41;2.58;;;1.30;;
21831;SDS011;11078;49.872;6.188;2022-07-06T07:12:07;2.60;;;1.10;;
21831;SDS011;11078;49.872;6.188;2022-07-06T07:14:33;3.17;;;1.15;;
21831;SDS011;11078;49.872;6.188;2022-07-06T07:16:59;1.92;;;0.98;;
21831;SDS011;11078;49.872;6.188;2022-07-06T07:19:25;0.95;;;0.88;;
21831;SDS011;11078;49.872;6.188;2022-07-06T07:21:51;2.47;;;1.00;;
21831;SDS011;11078;49.872;6.188;2022-07-06T07:24:17;4.40;;;1.10;;
21831;SDS011;11078;49.872;6.188;2022-07-06T07:26:43;3.85;;;1.00;;
21831;SDS011;11078;49.872;6.188;2022-07-06T07:29:09;1.45;;;0.80;;
21831;SDS011;11078;49.872;6.188;2022-07-06T07:31:34;2.15;;;0.90;;
21831;SDS011;11078;49.872;6.188;2022-07-06T07:34:00;3.08;;;1.00;;
21831;SDS011;11078;49.872;6.188;2022-07-06T07:36:26;1.42;;;0.88;;
21831;SDS011;11078;49.872;6.188;2022-07-06T07:38:52;2.67;;;0.90;;
21831;SDS011;11078;49.872;6.188;2022-07-06T07:41:18;0.65;;;0.65;;
21831;SDS011;11078;49.872;6.188;2022-07-06T07:43:44;1.80;;;0.82;;
21831;SDS011;11078;49.872;6.188;2022-07-06T07:46:10;0.95;;;0.90;;
21831;SDS011;11078;49.872;6.188;2022-07-06T07:48:37;1.40;;;0.90;;
21831;SDS011;11078;49.872;6.188;2022-07-06T07:51:05;1.48;;;0.90;;
21831;SDS011;11078;49.872;6.188;2022-07-06T07:53:31;2.15;;;0.90;;
21831;SDS011;11078;49.872;6.188;2022-07-06T07:55:57;0.60;;;0.60;;
21831;SDS011;11078;49.872;6.188;2022-07-06T07:58:23;0.70;;;0.60;;
21831;SDS011;11078;49.872;6.188;2022-07-06T08:00:49;0.80;;;0.80;;
21831;SDS011;11078;49.872;6.188;2022-07-06T08:03:15;1.35;;;0.68;;
21831;SDS011;11078;49.872;6.188;2022-07-06T08:05:41;1.10;;;0.88;;
21831;SDS011;11078;49.872;6.188;2022-07-06T08:08:07;1.30;;;0.73;;
21831;SDS011;11078;49.872;6.188;2022-07-06T08:10:33;1.30;;;0.70;;
21831;SDS011;11078;49.872;6.188;2022-07-06T08:12:59;3.70;;;0.73;;
21831;SDS011;11078;49.872;6.188;2022-07-06T08:15:25;1.73;;;0.80;;
21831;SDS011;11078;49.872;6.188;2022-07-06T08:17:52;2.00;;;0.60;;
21831;SDS011;11078;49.872;6.188;2022-07-06T08:20:17;2.30;;;0.50;;
21831;SDS011;11078;49.872;6.188;2022-07-06T08:22:43;1.85;;;0.73;;
21831;SDS011;11078;49.872;6.188;2022-07-06T08:25:10;1.00;;;0.70;;
21831;SDS011;11078;49.872;6.188;2022-07-06T08:27:36;0.75;;;0.55;;
21831;SDS011;11078;49.872;6.188;2022-07-06T08:30:03;0.50;;;0.50;;
21831;SDS011;11078;49.872;6.188;2022-07-06T08:32:30;4.03;;;0.70;;
21831;SDS011;11078;49.872;6.188;2022-07-06T08:34:56;1.05;;;0.60;;
21831;SDS011;11078;49.872;6.188;2022-07-06T08:37:21;0.80;;;0.57;;
21831;SDS011;11078;49.872;6.188;2022-07-06T08:39:47;1.48;;;0.60;;
21831;SDS011;11078;49.872;6.188;2022-07-06T08:42:14;0.70;;;0.50;;
21831;SDS011;11078;49.872;6.188;2022-07-06T08:44:42;2.70;;;0.70;;
21831;SDS011;11078;49.872;6.188;2022-07-06T08:47:09;1.17;;;0.68;;
21831;SDS011;11078;49.872;6.188;2022-07-06T08:49:35;1.08;;;0.60;;
21831;SDS011;11078;49.872;6.188;2022-07-06T08:52:03;0.68;;;0.68;;
21831;SDS011;11078;49.872;6.188;2022-07-06T08:54:30;3.70;;;0.70;;
21831;SDS011;11078;49.872;6.188;2022-07-06T08:56:56;1.13;;;0.60;;
21831;SDS011;11078;49.872;6.188;2022-07-06T08:59:24;3.33;;;0.70;;
21831;SDS011;11078;49.872;6.188;2022-07-06T09:01:50;3.17;;;1.17;;
21831;SDS011;11078;49.872;6.188;2022-07-06T09:04:17;0.90;;;0.68;;
21831;SDS011;11078;49.872;6.188;2022-07-06T09:06:46;4.35;;;0.80;;
21831;SDS011;11078;49.872;6.188;2022-07-06T09:09:15;3.28;;;0.65;;
21831;SDS011;11078;49.872;6.188;2022-07-06T09:11:46;1.60;;;0.70;;
21831;SDS011;11078;49.872;6.188;2022-07-06T09:14:13;1.55;;;0.57;;
21831;SDS011;11078;49.872;6.188;2022-07-06T09:16:39;1.65;;;0.85;;
21831;SDS011;11078;49.872;6.188;2022-07-06T09:19:06;3.22;;;0.85;;
21831;SDS011;11078;49.872;6.188;2022-07-06T09:21:35;2.55;;;0.70;;
21831;SDS011;11078;49.872;6.188;2022-07-06T09:24:03;2.67;;;0.70;;
21831;SDS011;11078;49.872;6.188;2022-07-06T09:26:33;2.92;;;0.60;;
21831;SDS011;11078;49.872;6.188;2022-07-06T09:28:59;1.05;;;0.70;;
21831;SDS011;11078;49.872;6.188;2022-07-06T09:31:25;1.13;;;0.70;;
21831;SDS011;11078;49.872;6.188;2022-07-06T09:33:54;1.70;;;0.55;;
21831;SDS011;11078;49.872;6.188;2022-07-06T09:36:44;3.85;;;0.70;;
21831;SDS011;11078;49.872;6.188;2022-07-06T09:41:53;2.45;;;0.60;;
21831;SDS011;11078;49.872;6.188;2022-07-06T09:44:25;1.33;;;0.52;;
21831;SDS011;11078;49.872;6.188;2022-07-06T09:47:03;1.63;;;0.70;;
21831;SDS011;11078;49.872;6.188;2022-07-06T09:49:30;0.68;;;0.60;;
21831;SDS011;11078;49.872;6.188;2022-07-06T09:52:01;1.60;;;0.60;;
21831;SDS011;11078;49.872;6.188;2022-07-06T09:54:29;1.60;;;0.60;;
21831;SDS011;11078;49.872;6.188;2022-07-06T09:56:57;1.88;;;0.80;;
21831;SDS011;11078;49.872;6.188;2022-07-06T09:59:24;2.90;;;0.80;;
21831;SDS011;11078;49.872;6.188;2022-07-06T10:01:52;1.60;;;0.80;;
21831;SDS011;11078;49.872;6.188;2022-07-06T10:04:21;1.42;;;0.98;;
21831;SDS011;11078;49.872;6.188;2022-07-06T10:06:48;0.68;;;0.68;;
21831;SDS011;11078;49.872;6.188;2022-07-06T10:09:14;1.83;;;0.50;;
21831;SDS011;11078;49.872;6.188;2022-07-06T10:11:47;0.63;;;0.63;;
21831;SDS011;11078;49.872;6.188;2022-07-06T10:14:23;1.27;;;0.50;;
21831;SDS011;11078;49.872;6.188;2022-07-06T10:16:52;1.27;;;0.70;;
21831;SDS011;11078;49.872;6.188;2022-07-06T10:19:19;0.80;;;0.50;;
21831;SDS011;11078;49.872;6.188;2022-07-06T10:21:46;3.42;;;0.65;;
21831;SDS011;11078;49.872;6.188;2022-07-06T10:24:12;0.90;;;0.73;;
21831;SDS011;11078;49.872;6.188;2022-07-06T10:26:39;2.40;;;0.52;;
21831;SDS011;11078;49.872;6.188;2022-07-06T10:29:06;1.35;;;0.50;;
21831;SDS011;11078;49.872;6.188;2022-07-06T10:31:33;1.25;;;0.60;;
21831;SDS011;11078;49.872;6.188;2022-07-06T10:34:04;1.95;;;0.65;;
21831;SDS011;11078;49.872;6.188;2022-07-06T10:36:36;2.35;;;0.60;;
21831;SDS011;11078;49.872;6.188;2022-07-06T10:39:04;1.13;;;0.60;;
21831;SDS011;11078;49.872;6.188;2022-07-06T10:41:49;1.60;;;0.60;;
21831;SDS011;11078;49.872;6.188;2022-07-06T10:44:17;2.05;;;0.50;;
21831;SDS011;11078;49.872;6.188;2022-07-06T10:49:26;1.65;;;0.52;;
21831;SDS011;11078;49.872;6.188;2022-07-06T10:51:52;1.10;;;0.70;;
21831;SDS011;11078;49.872;6.188;2022-07-06T10:54:21;1.13;;;0.57;;
21831;SDS011;11078;49.872;6.188;2022-07-06T10:56:50;1.05;;;0.60;;
21831;SDS011;11078;49.872;6.188;2022-07-06T10:59:17;0.77;;;0.77;;
21831;SDS011;11078;49.872;6.188;2022-07-06T11:04:46;0.93;;;0.60;;
21831;SDS011;11078;49.872;6.188;2022-07-06T11:07:14;1.65;;;0.60;;
21831;SDS011;11078;49.872;6.188;2022-07-06T11:09:53;2.63;;;0.70;;
21831;SDS011;11078;49.872;6.188;2022-07-06T11:12:20;1.30;;;0.70;;
21831;SDS011;11078;49.872;6.188;2022-07-06T11:14:48;1.67;;;0.70;;
21831;SDS011;11078;49.872;6.188;2022-07-06T11:17:15;1.48;;;0.60;;
21831;SDS011;11078;49.872;6.188;2022-07-06T11:19:49;2.10;;;0.90;;
21831;SDS011;11078;49.872;6.188;2022-07-06T11:22:20;2.95;;;0.60;;
21831;SDS011;11078;49.872;6.188;2022-07-06T11:24:45;0.55;;;0.55;;
21831;SDS011;11078;49.872;6.188;2022-07-06T11:27:12;1.65;;;0.82;;
21831;SDS011;11078;49.872;6.188;2022-07-06T11:29:38;1.77;;;0.80;;
21831;SDS011;11078;49.872;6.188;2022-07-06T11:32:06;5.78;;;0.75;;
21831;SDS011;11078;49.872;6.188;2022-07-06T11:34:36;1.52;;;0.95;;
21831;SDS011;11078;49.872;6.188;2022-07-06T11:37:05;1.00;;;0.70;;
21831;SDS011;11078;49.872;6.188;2022-07-06T11:39:36;2.38;;;0.85;;
21831;SDS011;11078;49.872;6.188;2022-07-06T11:42:06;1.25;;;0.70;;
21831;SDS011;11078;49.872;6.188;2022-07-06T11:44:33;2.03;;;0.80;;
21831;SDS011;11078;49.872;6.188;2022-07-06T11:47:00;1.20;;;0.80;;
21831;SDS011;11078;49.872;6.188;2022-07-06T11:49:29;2.45;;;0.73;;
21831;SDS011;11078;49.872;6.188;2022-07-06T11:51:56;2.20;;;1.08;;
21831;SDS011;11078;49.872;6.188;2022-07-06T11:54:22;2.30;;;0.70;;
21831;SDS011;11078;49.872;6.188;2022-07-06T11:56:50;1.67;;;0.65;;
21831;SDS011;11078;49.872;6.188;2022-07-06T11:59:21;1.27;;;0.60;;
21831;SDS011;11078;49.872;6.188;2022-07-06T12:01:57;3.13;;;0.70;;
21831;SDS011;11078;49.872;6.188;2022-07-06T12:04:25;2.45;;;0.90;;
21831;SDS011;11078;49.872;6.188;2022-07-06T12:06:51;3.35;;;0.95;;
21831;SDS011;11078;49.872;6.188;2022-07-06T12:09:17;1.92;;;0.88;;
21831;SDS011;11078;49.872;6.188;2022-07-06T12:11:45;2.55;;;0.80;;
21831;SDS011;11078;49.872;6.188;2022-07-06T12:14:12;4.32;;;0.90;;
21831;SDS011;11078;49.872;6.188;2022-07-06T12:16:40;3.08;;;1.02;;
21831;SDS011;11078;49.872;6.188;2022-07-06T12:19:07;2.55;;;0.75;;
21831;SDS011;11078;49.872;6.188;2022-07-06T12:21:34;2.13;;;0.85;;
21831;SDS011;11078;49.872;6.188;2022-07-06T12:24:00;7.82;;;0.90;;
21831;SDS011;11078;49.872;6.188;2022-07-06T12:26:27;1.58;;;1.02;;
21831;SDS011;11078;49.872;6.188;2022-07-06T12:31:40;0.75;;;0.75;;
21831;SDS011;11078;49.872;6.188;2022-07-06T12:34:12;0.93;;;0.50;;
21831;SDS011;11078;49.872;6.188;2022-07-06T12:36:49;1.90;;;0.80;;
21831;SDS011;11078;49.872;6.188;2022-07-06T12:39:18;0.85;;;0.68;;
21831;SDS011;11078;49.872;6.188;2022-07-06T12:41:54;1.25;;;0.93;;
21831;SDS011;11078;49.872;6.188;2022-07-06T12:44:22;1.05;;;0.70;;
21831;SDS011;11078;49.872;6.188;2022-07-06T12:46:51;2.10;;;1.10;;
21831;SDS011;11078;49.872;6.188;2022-07-06T12:49:32;0.85;;;0.70;;
21831;SDS011;11078;49.872;6.188;2022-07-06T12:52:09;3.70;;;0.90;;
21831;SDS011;11078;49.872;6.188;2022-07-06T12:54:40;1.13;;;0.80;;
21831;SDS011;11078;49.872;6.188;2022-07-06T12:57:13;2.25;;;0.80;;
21831;SDS011;11078;49.872;6.188;2022-07-06T12:59:42;1.83;;;0.85;;
21831;SDS011;11078;49.872;6.188;2022-07-06T13:04:57;1.90;;;0.80;;
21831;SDS011;11078;49.872;6.188;2022-07-06T13:07:25;1.17;;;0.80;;
21831;SDS011;11078;49.872;6.188;2022-07-06T13:09:52;1.38;;;0.80;;
21831;SDS011;11078;49.872;6.188;2022-07-06T13:12:19;0.70;;;0.70;;
21831;SDS011;11078;49.872;6.188;2022-07-06T13:14:46;7.40;;;0.82;;
21831;SDS011;11078;49.872;6.188;2022-07-06T13:17:13;1.67;;;0.80;;
21831;SDS011;11078;49.872;6.188;2022-07-06T13:19:39;0.70;;;0.60;;
21831;SDS011;11078;49.872;6.188;2022-07-06T13:22:05;3.30;;;0.85;;
21831;SDS011;11078;49.872;6.188;2022-07-06T13:24:31;2.42;;;1.00;;
21831;SDS011;11078;49.872;6.188;2022-07-06T13:26:57;2.90;;;1.00;;
21831;SDS011;11078;49.872;6.188;2022-07-06T13:29:23;2.10;;;1.00;;
21831;SDS011;11078;49.872;6.188;2022-07-06T13:31:49;1.15;;;0.80;;
21831;SDS011;11078;49.872;6.188;2022-07-06T13:34:15;1.80;;;0.70;;
21831;SDS011;11078;49.872;6.188;2022-07-06T13:36:41;3.50;;;1.00;;
21831;SDS011;11078;49.872;6.188;2022-07-06T13:39:08;1.00;;;0.85;;
21831;SDS011;11078;49.872;6.188;2022-07-06T13:41:34;1.30;;;0.80;;
21831;SDS011;11078;49.872;6.188;2022-07-06T13:44:00;3.95;;;1.08;;
21831;SDS011;11078;49.872;6.188;2022-07-06T13:46:27;1.42;;;1.08;;
21831;SDS011;11078;49.872;6.188;2022-07-06T13:48:54;2.42;;;1.13;;
21831;SDS011;11078;49.872;6.188;2022-07-06T13:51:21;3.13;;;0.73;;
21831;SDS011;11078;49.872;6.188;2022-07-06T13:53:47;2.50;;;0.82;;
21831;SDS011;11078;49.872;6.188;2022-07-06T13:56:14;1.38;;;0.65;;
21831;SDS011;11078;49.872;6.188;2022-07-06T13:58:41;1.63;;;1.17;;
21831;SDS011;11078;49.872;6.188;2022-07-06T14:01:07;2.88;;;0.90;;
21831;SDS011;11078;49.872;6.188;2022-07-06T14:03:34;3.28;;;1.10;;
21831;SDS011;11078;49.872;6.188;2022-07-06T14:06:02;2.45;;;1.08;;
21831;SDS011;11078;49.872;6.188;2022-07-06T14:08:30;0.70;;;0.70;;
21831;SDS011;11078;49.872;6.188;2022-07-06T14:10:56;1.08;;;0.80;;
21831;SDS011;11078;49.872;6.188;2022-07-06T14:13:22;2.05;;;0.75;;
21831;SDS011;11078;49.872;6.188;2022-07-06T14:15:49;2.30;;;1.02;;
21831;SDS011;11078;49.872;6.188;2022-07-06T14:18:15;5.00;;;0.98;;
21831;SDS011;11078;49.872;6.188;2022-07-06T14:20:43;1.90;;;0.80;;
21831;SDS011;11078;49.872;6.188;2022-07-06T14:23:10;2.20;;;0.80;;
21831;SDS011;11078;49.872;6.188;2022-07-06T14:25:36;2.95;;;0.98;;
21831;SDS011;11078;49.872;6.188;2022-07-06T14:28:03;6.40;;;1.00;;
21831;SDS011;11078;49.872;6.188;2022-07-06T14:30:29;1.45;;;0.60;;
21831;SDS011;11078;49.872;6.188;2022-07-06T14:32:55;0.80;;;0.80;;
21831;SDS011;11078;49.872;6.188;2022-07-06T14:35:21;2.40;;;0.80;;
21831;SDS011;11078;49.872;6.188;2022-07-06T14:37:50;1.50;;;0.68;;
21831;SDS011;11078;49.872;6.188;2022-07-06T14:40:16;0.98;;;0.70;;
21831;SDS011;11078;49.872;6.188;2022-07-06T14:42:42;1.40;;;0.68;;
21831;SDS011;11078;49.872;6.188;2022-07-06T14:45:08;1.75;;;0.70;;
21831;SDS011;11078;49.872;6.188;2022-07-06T14:47:34;1.08;;;0.82;;
21831;SDS011;11078;49.872;6.188;2022-07-06T14:50:01;1.42;;;0.77;;
21831;SDS011;11078;49.872;6.188;2022-07-06T14:52:28;1.95;;;1.00;;
21831;SDS011;11078;49.872;6.188;2022-07-06T14:54:54;1.23;;;0.80;;
21831;SDS011;11078;49.872;6.188;2022-07-06T14:57:20;17.83;;;1.27;;
21831;SDS011;11078;49.872;6.188;2022-07-06T14:59:46;1.83;;;0.85;;
21831;SDS011;11078;49.872;6.188;2022-07-06T15:02:11;0.73;;;0.70;;
21831;SDS011;11078;49.872;6.188;2022-07-06T15:04:37;2.80;;;0.70;;
21831;SDS011;11078;49.872;6.188;2022-07-06T15:07:03;1.48;;;0.80;;